In Rescue
 
Open Full Screen Window  High Contrast Mode
Wind Gusting 00 knots
08
July 13, 2020 8:24 AM CDT
Weather Information
Wind Direction
  150 °
Wind Speed
  08 kt (9 mph)
Wind Gust
  00 kt (0 mph)
Altimeter
29.89 in
Visibility
10 SM
Temperature
21° C
70° F
Dewpoint
17° C
63° F
Humidity
78%
1hr Rain Fall
00.00 in.
24hr Rain Fall
00.00 in.
Sky Condition
Clear
VFR

METAR KOVL 131324Z AUTO 15008KT 10SM CLR 21/17 A2989 RMK AO2

FAA Disclaimer: The data displayed is for advisory purposes only and is not to be used for flight planning or operations.